createdAt,value
2019-04-11T00:00:41.807Z,1017.37
2019-04-11T00:01:48.013Z,1017.36
2019-04-11T00:02:42.508Z,1017.33
2019-04-11T00:03:41.794Z,1017.35
2019-04-11T00:04:42.035Z,1017.36
2019-04-11T00:05:41.482Z,1017.37
2019-04-11T00:06:41.490Z,1017.39
2019-04-11T00:07:42.546Z,1017.41
2019-04-11T00:08:41.937Z,1017.41
2019-04-11T00:09:41.434Z,1017.43
2019-04-11T00:10:41.693Z,1017.41
2019-04-11T00:11:41.966Z,1017.37
2019-04-11T00:12:41.399Z,1017.43
2019-04-11T00:13:41.383Z,1017.42
2019-04-11T00:14:42.158Z,1017.44
2019-04-11T00:15:42.453Z,1017.49
2019-04-11T00:16:41.567Z,1017.48
2019-04-11T00:17:41.824Z,1017.48
2019-04-11T00:18:41.334Z,1017.51
2019-04-11T00:19:41.316Z,1017.60
2019-04-11T00:20:42.413Z,1017.56
2019-04-11T00:21:41.393Z,1017.57
2019-04-11T00:22:41.563Z,1017.55
2019-04-11T00:23:41.273Z,1017.56
2019-04-11T00:24:41.264Z,1017.53
2019-04-11T00:25:42.058Z,1017.56
2019-04-11T00:26:41.329Z,1017.61
2019-04-11T00:27:41.357Z,1017.56
2019-04-11T00:28:41.679Z,1017.62
2019-04-11T00:29:41.206Z,1017.63
2019-04-11T00:30:42.183Z,1017.62
2019-04-11T00:31:41.200Z,1017.60
2019-04-11T00:32:41.475Z,1017.61
2019-04-11T00:33:42.404Z,1017.60
2019-04-11T00:34:41.152Z,1017.63
2019-04-11T00:35:41.949Z,1017.64
2019-04-11T00:36:41.135Z,1017.66
2019-04-11T00:37:41.288Z,1017.64
2019-04-11T00:38:42.266Z,1017.64
2019-04-11T00:39:41.107Z,1017.66
2019-04-11T00:40:41.652Z,1017.67
2019-04-11T00:41:41.895Z,1017.65
2019-04-11T00:42:41.118Z,1017.67
2019-04-11T00:43:43.446Z,1017.68
2019-04-11T00:44:41.195Z,1017.64
2019-04-11T00:45:41.032Z,1017.71
2019-04-11T00:46:41.029Z,1017.70
2019-04-11T00:47:41.544Z,1017.73
2019-04-11T00:48:41.931Z,1017.71
2019-04-11T00:49:42.949Z,1017.71
2019-04-11T00:50:40.982Z,1017.72
2019-04-11T00:51:42.247Z,1017.71
2019-04-11T00:52:41.295Z,1017.74
2019-04-11T00:53:40.949Z,1017.69
2019-04-11T00:54:40.941Z,1017.70
2019-04-11T00:55:41.864Z,1017.77
2019-04-11T00:56:42.187Z,1017.72
2019-04-11T00:57:41.232Z,1017.74
2019-04-11T00:58:41.530Z,1017.76
2019-04-11T00:59:40.878Z,1017.78
2019-04-11T01:00:40.881Z,1017.77
2019-04-11T01:01:40.971Z,1017.78
2019-04-11T01:02:42.267Z,1017.76
2019-04-11T01:03:40.835Z,1017.77
2019-04-11T01:04:41.235Z,1017.78
2019-04-11T01:05:41.536Z,1017.79
2019-04-11T01:06:40.810Z,1017.79
2019-04-11T01:07:40.966Z,1017.76
2019-04-11T01:08:41.882Z,1017.76
2019-04-11T01:09:40.796Z,1017.78
2019-04-11T01:10:41.520Z,1017.75
2019-04-11T01:11:40.749Z,1017.80
2019-04-11T01:12:40.881Z,1017.78
2019-04-11T01:13:48.610Z,1017.79
2019-04-11T01:14:42.688Z,1017.82
2019-04-11T01:15:40.882Z,1017.79
2019-04-11T01:16:41.012Z,1017.82
2019-04-11T01:17:41.339Z,1017.79
2019-04-11T01:18:40.673Z,1017.80
2019-04-11T01:19:40.798Z,1017.91
2019-04-11T01:20:41.816Z,1017.85
2019-04-11T01:21:40.639Z,1017.83
2019-04-11T01:22:40.669Z,1017.84
2019-04-11T01:23:40.702Z,1017.85
2019-04-11T01:24:41.950Z,1017.87
2019-04-11T01:25:41.036Z,1017.89
2019-04-11T01:26:41.353Z,1017.87
2019-04-11T01:27:41.186Z,1017.87
2019-04-11T01:28:40.777Z,1017.89
2019-04-11T01:29:41.813Z,1017.87
2019-04-11T01:30:40.922Z,1017.92
2019-04-11T01:31:40.548Z,1017.92
2019-04-11T01:32:40.520Z,1017.91
2019-04-11T01:33:42.117Z,1017.88
2019-04-11T01:34:40.555Z,1017.87
2019-04-11T01:35:41.604Z,1017.87
2019-04-11T01:36:40.485Z,1017.86
2019-04-11T01:37:40.476Z,1017.89
2019-04-11T01:38:40.886Z,1017.92
2019-04-11T01:39:41.217Z,1017.88
2019-04-11T01:40:40.433Z,1017.89
2019-04-11T01:41:40.532Z,1017.92
2019-04-11T01:42:41.665Z,1017.93
2019-04-11T01:43:52.075Z,1017.91
2019-04-11T01:44:41.499Z,1017.94
2019-04-11T01:45:41.328Z,1017.93
2019-04-11T01:46:40.366Z,1017.93
2019-04-11T01:47:40.355Z,1017.97
2019-04-11T01:48:40.355Z,1017.98
2019-04-11T01:49:40.659Z,1017.98
2019-04-11T01:50:41.182Z,1017.99
2019-04-11T01:51:40.317Z,1017.98
2019-04-11T01:52:40.351Z,1017.98
2019-04-11T01:53:41.015Z,1017.99
2019-04-11T01:54:40.283Z,1017.96
2019-04-11T01:55:40.837Z,1018.00
2019-04-11T01:56:41.150Z,1018.03
2019-04-11T01:57:40.340Z,1017.96
2019-04-11T01:58:40.638Z,1017.96
2019-04-11T01:59:40.224Z,1017.92
2019-04-11T02:00:40.220Z,1017.97
2019-04-11T02:01:41.066Z,1017.98
2019-04-11T02:02:40.203Z,1018.03
2019-04-11T02:03:41.363Z,1018.00
2019-04-11T02:04:40.467Z,1018.01
2019-04-11T02:05:41.130Z,1017.99
2019-04-11T02:06:40.385Z,1018.01
2019-04-11T02:07:40.133Z,1017.99
2019-04-11T02:08:40.127Z,1017.96
2019-04-11T02:09:40.180Z,1018.04
2019-04-11T02:10:41.129Z,1018.08
2019-04-11T02:11:40.451Z,1018.03
2019-04-11T02:12:40.081Z,1018.03
2019-04-11T02:13:40.069Z,1018.10
2019-04-11T02:14:40.067Z,1018.12
2019-04-11T02:15:40.820Z,1018.08
2019-04-11T02:16:41.131Z,1018.08
2019-04-11T02:17:41.115Z,1018.10
2019-04-11T02:18:40.015Z,1018.09
2019-04-11T02:19:40.521Z,1018.09
2019-04-11T02:20:40.948Z,1018.14
2019-04-11T02:21:42.046Z,1018.14
2019-04-11T02:22:40.395Z,1018.17
2019-04-11T02:23:39.965Z,1018.19
2019-04-11T02:24:40.007Z,1018.18
2019-04-11T02:25:41.258Z,1018.14
2019-04-11T02:26:41.025Z,1018.14
2019-04-11T02:27:40.156Z,1018.20
2019-04-11T02:28:40.981Z,1018.22
2019-04-11T02:29:39.959Z,1018.22
2019-04-11T02:30:41.923Z,1018.24
2019-04-11T02:31:39.881Z,1018.21
2019-04-11T02:32:40.417Z,1018.24
2019-04-11T02:33:41.369Z,1018.25
2019-04-11T02:34:40.292Z,1018.25
2019-04-11T02:35:42.208Z,1018.22
2019-04-11T02:36:40.509Z,1018.18
2019-04-11T02:37:40.000Z,1018.21
2019-04-11T02:38:41.258Z,1018.20
2019-04-11T02:39:40.955Z,1018.21
2019-04-11T02:40:41.098Z,1018.17
2019-04-11T02:41:40.073Z,1018.18
2019-04-11T02:42:41.061Z,1018.19
2019-04-11T02:43:41.804Z,1018.21
2019-04-11T02:44:56.058Z,1018.27
2019-04-11T02:45:54.531Z,1018.25
2019-04-11T02:46:44.891Z,1018.30
2019-04-11T02:47:43.938Z,1018.28
2019-04-11T02:48:42.487Z,1018.27
2019-04-11T02:49:41.138Z,1018.30
2019-04-11T02:50:41.480Z,1018.29
2019-04-11T02:51:39.655Z,1018.30
2019-04-11T02:52:40.145Z,1018.31
2019-04-11T02:53:40.933Z,1018.36
2019-04-11T02:54:40.959Z,1018.33
2019-04-11T02:55:41.439Z,1018.31
2019-04-11T02:56:40.657Z,1018.33
2019-04-11T02:57:40.820Z,1018.32
2019-04-11T02:58:40.086Z,1018.30
2019-04-11T02:59:40.968Z,1018.33
2019-04-11T03:00:40.289Z,1018.32
2019-04-11T03:01:39.973Z,1018.36
2019-04-11T03:02:41.649Z,1018.35
2019-04-11T03:03:41.702Z,1018.38
2019-04-11T03:04:41.521Z,1018.36
2019-04-11T03:05:39.662Z,1018.40
2019-04-11T03:06:39.882Z,1018.37
2019-04-11T03:07:40.106Z,1018.37
2019-04-11T03:08:41.017Z,1018.38
2019-04-11T03:09:39.516Z,1018.37
2019-04-11T03:10:40.918Z,1018.40
2019-04-11T03:11:40.857Z,1018.39
2019-04-11T03:12:40.517Z,1018.44
2019-04-11T03:13:39.579Z,1018.46
2019-04-11T03:15:01.047Z,1018.42
2019-04-11T03:15:56.954Z,1018.44
2019-04-11T03:16:51.882Z,1018.47
2019-04-11T03:17:43.313Z,1018.42
2019-04-11T03:19:02.414Z,1018.41
2019-04-11T03:19:54.731Z,1018.42
2019-04-11T03:20:47.803Z,1018.38
2019-04-11T03:21:43.677Z,1018.39
2019-04-11T03:22:40.527Z,1018.44
2019-04-11T03:23:40.133Z,1018.44
2019-04-11T03:24:40.624Z,1018.44
2019-04-11T03:25:40.585Z,1018.44
2019-04-11T03:26:41.135Z,1018.49
2019-04-11T03:27:40.824Z,1018.46
2019-04-11T03:28:42.473Z,1018.48
2019-04-11T03:29:40.809Z,1018.48
2019-04-11T03:30:59.181Z,1018.51
2019-04-11T03:32:24.690Z,1018.46
2019-04-11T03:34:24.981Z,1018.48
2019-04-11T03:37:58.703Z,1018.50
2019-04-11T03:39:00.228Z,1018.51
2019-04-11T03:39:59.606Z,1018.49
2019-04-11T03:40:57.686Z,1018.48
2019-04-11T03:41:57.665Z,1018.52
2019-04-11T03:42:57.050Z,1018.48
2019-04-11T03:43:51.046Z,1018.53
2019-04-11T03:44:46.292Z,1018.55
2019-04-11T03:45:58.979Z,1018.54
2019-04-11T03:46:52.776Z,1018.57
2019-04-11T03:47:59.477Z,1018.58
2019-04-11T03:48:50.747Z,1018.55
2019-04-11T03:49:49.089Z,1018.55
2019-04-11T03:50:40.281Z,1018.57
2019-04-11T03:51:40.925Z,1018.54
2019-04-11T03:52:38.983Z,1018.61
2019-04-11T03:53:38.973Z,1018.56
2019-04-11T03:54:41.013Z,1018.55
2019-04-11T03:55:39.136Z,1018.56
2019-04-11T03:56:39.076Z,1018.58
2019-04-11T03:57:39.470Z,1018.55
2019-04-11T03:58:39.865Z,1018.60
2019-04-11T03:59:40.563Z,1018.59
2019-04-11T04:00:43.208Z,1018.57
2019-04-11T04:01:39.976Z,1018.60
2019-04-11T04:02:39.167Z,1018.59
2019-04-11T04:03:39.351Z,1018.60
2019-04-11T04:04:39.342Z,1018.66
2019-04-11T04:05:39.721Z,1018.62
2019-04-11T04:06:39.448Z,1018.67
2019-04-11T04:07:40.291Z,1018.65
2019-04-11T04:08:39.269Z,1018.63
2019-04-11T04:09:39.745Z,1018.68
2019-04-11T04:10:39.525Z,1018.66
2019-04-11T04:11:40.736Z,1018.74
2019-04-11T04:12:40.254Z,1018.74
2019-04-11T04:13:39.176Z,1018.71
2019-04-11T04:14:39.142Z,1018.72
2019-04-11T04:15:51.625Z,1018.76
2019-04-11T04:16:45.633Z,1018.76
2019-04-11T04:17:41.189Z,1018.78
2019-04-11T04:18:40.197Z,1018.77
2019-04-11T04:19:40.137Z,1018.74
2019-04-11T04:20:39.422Z,1018.76
2019-04-11T04:21:38.910Z,1018.79
2019-04-11T04:22:39.712Z,1018.84
2019-04-11T04:23:38.640Z,1018.84
2019-04-11T04:24:40.525Z,1018.84
2019-04-11T04:25:39.226Z,1018.86
2019-04-11T04:26:39.098Z,1018.85
2019-04-11T04:27:38.885Z,1018.86
2019-04-11T04:28:40.675Z,1018.89
2019-04-11T04:29:38.742Z,1018.94
2019-04-11T04:30:40.554Z,1018.93
2019-04-11T04:31:39.069Z,1018.92
2019-04-11T04:32:38.777Z,1018.94
2019-04-11T04:33:40.046Z,1018.95
2019-04-11T04:34:40.222Z,1018.92
2019-04-11T04:35:40.142Z,1018.99
2019-04-11T04:36:40.189Z,1018.98
2019-04-11T04:37:38.859Z,1019.00
2019-04-11T04:38:39.562Z,1019.03
2019-04-11T04:39:39.657Z,1019.03
2019-04-11T04:40:51.033Z,1019.05
2019-04-11T04:41:47.875Z,1019.04
2019-04-11T04:42:46.089Z,1019.11
2019-04-11T04:43:41.146Z,1019.07
2019-04-11T04:44:40.217Z,1019.09
2019-04-11T04:45:58.147Z,1019.07
2019-04-11T04:46:57.147Z,1019.09
2019-04-11T04:47:47.087Z,1019.08
2019-04-11T04:48:41.028Z,1019.12
2019-04-11T04:49:39.275Z,1019.13
2019-04-11T04:50:39.327Z,1019.12
2019-04-11T04:51:39.126Z,1019.12
2019-04-11T04:52:38.439Z,1019.14
2019-04-11T04:53:39.063Z,1019.14
2019-04-11T04:54:38.710Z,1019.14
2019-04-11T04:55:38.800Z,1019.18
2019-04-11T04:56:39.790Z,1019.18
2019-04-11T04:57:38.274Z,1019.22
2019-04-11T04:58:39.833Z,1019.22
2019-04-11T04:59:40.605Z,1019.24
2019-04-11T05:00:39.709Z,1019.23
2019-04-11T05:01:39.282Z,1019.23
2019-04-11T05:02:39.791Z,1019.25
2019-04-11T05:03:38.210Z,1019.24
2019-04-11T05:04:38.770Z,1019.23
2019-04-11T05:05:38.829Z,1019.25
2019-04-11T05:06:38.729Z,1019.25
2019-04-11T05:07:40.428Z,1019.27
2019-04-11T05:08:39.026Z,1019.22
2019-04-11T05:09:38.412Z,1019.28
2019-04-11T05:10:38.255Z,1019.24
2019-04-11T05:11:38.339Z,1019.23
2019-04-11T05:12:38.841Z,1019.26
2019-04-11T05:13:38.789Z,1019.32
2019-04-11T05:14:39.347Z,1019.35
2019-04-11T05:15:38.670Z,1019.33
2019-04-11T05:16:38.059Z,1019.37
2019-04-11T05:17:38.701Z,1019.32
2019-04-11T05:18:38.039Z,1019.34
2019-04-11T05:19:38.355Z,1019.37
2019-04-11T05:20:38.605Z,1019.37
2019-04-11T05:21:38.203Z,1019.35
2019-04-11T05:22:38.060Z,1019.34
2019-04-11T05:23:37.984Z,1019.36
2019-04-11T05:24:38.910Z,1019.37
2019-04-11T05:25:39.035Z,1019.39
2019-04-11T05:26:37.959Z,1019.42
2019-04-11T05:27:38.028Z,1019.52
2019-04-11T05:28:37.929Z,1019.46
2019-04-11T05:29:37.919Z,1019.43
2019-04-11T05:30:37.912Z,1019.47
2019-04-11T05:31:38.694Z,1019.50
2019-04-11T05:32:37.889Z,1019.55
2019-04-11T05:33:39.097Z,1019.52
2019-04-11T05:34:37.866Z,1019.58
2019-04-11T05:35:37.852Z,1019.60
2019-04-11T05:36:38.715Z,1019.58
2019-04-11T05:37:37.924Z,1019.52
2019-04-11T05:38:38.019Z,1019.54
2019-04-11T05:39:38.124Z,1019.56
2019-04-11T05:40:37.814Z,1019.58
2019-04-11T05:41:37.785Z,1019.57
2019-04-11T05:42:37.778Z,1019.60
2019-04-11T05:43:39.784Z,1019.61
2019-04-11T05:44:40.226Z,1019.57
2019-04-11T05:45:38.104Z,1019.59
2019-04-11T05:46:49.109Z,1019.63
2019-04-11T05:47:39.325Z,1019.59
2019-04-11T05:48:38.938Z,1019.60
2019-04-11T05:49:40.834Z,1019.60
2019-04-11T05:50:37.687Z,1019.62
2019-04-11T05:51:41.641Z,1019.62
2019-04-11T05:52:39.892Z,1019.65
2019-04-11T05:53:38.678Z,1019.65
2019-04-11T05:54:41.209Z,1019.66
2019-04-11T05:55:41.433Z,1019.70
2019-04-11T05:56:37.653Z,1019.67
2019-04-11T05:57:38.866Z,1019.66
2019-04-11T05:58:42.177Z,1019.71
2019-04-11T05:59:39.065Z,1019.68
2019-04-11T06:00:38.051Z,1019.68
2019-04-11T06:01:38.332Z,1019.64
2019-04-11T06:02:37.557Z,1019.67
2019-04-11T06:03:39.978Z,1019.70
2019-04-11T06:04:37.537Z,1019.72
2019-04-11T06:05:39.087Z,1019.68
2019-04-11T06:06:40.256Z,1019.75
2019-04-11T06:07:42.500Z,1019.71
2019-04-11T06:08:38.489Z,1019.74
2019-04-11T06:09:39.847Z,1019.74
2019-04-11T06:10:42.659Z,1019.76
2019-04-11T06:11:39.096Z,1019.81
2019-04-11T06:12:37.953Z,1019.80
2019-04-11T06:13:37.441Z,1019.77
2019-04-11T06:14:37.581Z,1019.77
2019-04-11T06:15:40.827Z,1019.73
2019-04-11T06:16:43.599Z,1019.74
2019-04-11T06:17:38.556Z,1019.79
2019-04-11T06:18:40.808Z,1019.82
2019-04-11T06:19:39.499Z,1019.80
2019-04-11T06:20:37.987Z,1019.79
2019-04-11T06:21:37.355Z,1019.79
2019-04-11T06:22:38.091Z,1019.80
2019-04-11T06:23:37.328Z,1019.81
2019-04-11T06:24:38.438Z,1019.74
2019-04-11T06:25:40.268Z,1019.73
2019-04-11T06:26:38.685Z,1019.73
2019-04-11T06:27:38.979Z,1019.69
2019-04-11T06:28:38.075Z,1019.73
2019-04-11T06:29:37.266Z,1019.72
2019-04-11T06:30:37.259Z,1019.72
2019-04-11T06:31:38.152Z,1019.74
2019-04-11T06:32:38.305Z,1019.76
2019-04-11T06:33:37.476Z,1019.77
2019-04-11T06:34:37.602Z,1019.80
2019-04-11T06:35:37.851Z,1019.82
2019-04-11T06:36:37.182Z,1019.82
2019-04-11T06:37:38.117Z,1019.90
2019-04-11T06:38:37.217Z,1019.89
2019-04-11T06:39:37.806Z,1019.78
2019-04-11T06:40:37.232Z,1019.83
2019-04-11T06:41:37.139Z,1019.82
2019-04-11T06:42:37.301Z,1019.84
2019-04-11T06:43:38.329Z,1019.86
2019-04-11T06:44:37.683Z,1019.86
2019-04-11T06:45:37.729Z,1019.85
2019-04-11T06:46:48.590Z,1019.85
2019-04-11T06:47:38.084Z,1019.83
2019-04-11T06:48:38.099Z,1019.83
2019-04-11T06:49:37.037Z,1019.84
2019-04-11T06:50:37.609Z,1019.87
2019-04-11T06:51:37.797Z,1019.88
2019-04-11T06:52:37.039Z,1019.87
2019-04-11T06:53:37.094Z,1019.87
2019-04-11T06:54:37.183Z,1019.87
2019-04-11T06:55:37.125Z,1019.82
2019-04-11T06:56:36.993Z,1019.88
2019-04-11T06:57:38.217Z,1019.79
2019-04-11T06:58:37.330Z,1019.83
2019-04-11T06:59:37.018Z,1019.79
2019-04-11T07:00:36.988Z,1019.85
2019-04-11T07:01:38.355Z,1019.84
2019-04-11T07:02:36.974Z,1019.80
2019-04-11T07:03:36.924Z,1019.89
2019-04-11T07:04:37.766Z,1019.80
2019-04-11T07:05:36.964Z,1019.80
2019-04-11T07:06:37.760Z,1019.86
2019-04-11T07:07:37.814Z,1019.78
2019-04-11T07:08:36.834Z,1019.81
2019-04-11T07:09:37.499Z,1019.86
2019-04-11T07:10:36.809Z,1019.77
2019-04-11T07:11:36.804Z,1019.91
2019-04-11T07:12:36.790Z,1019.95
2019-04-11T07:13:37.164Z,1019.88
2019-04-11T07:14:37.556Z,1019.96
2019-04-11T07:15:37.679Z,1019.98
2019-04-11T07:16:36.745Z,1019.95
2019-04-11T07:17:37.505Z,1019.96
2019-04-11T07:18:37.827Z,1019.94
2019-04-11T07:19:37.282Z,1019.94
2019-04-11T07:20:37.871Z,1019.98
2019-04-11T07:21:36.692Z,1019.96
2019-04-11T07:22:36.903Z,1019.87
2019-04-11T07:23:36.667Z,1019.96
2019-04-11T07:24:36.836Z,1019.96
2019-04-11T07:25:37.428Z,1019.95
2019-04-11T07:26:37.602Z,1019.94
2019-04-11T07:27:36.713Z,1019.91
2019-04-11T07:28:36.614Z,1019.97
2019-04-11T07:29:37.832Z,1019.96
2019-04-11T07:30:37.451Z,1019.95
2019-04-11T07:31:38.018Z,1019.90
2019-04-11T07:32:36.661Z,1019.91
2019-04-11T07:33:37.290Z,1019.99
2019-04-11T07:34:38.776Z,1020.00
2019-04-11T07:35:37.935Z,1020.00
2019-04-11T07:36:36.529Z,1019.98
2019-04-11T07:37:37.206Z,1019.97
2019-04-11T07:38:36.687Z,1019.94
2019-04-11T07:39:37.906Z,1019.94
2019-04-11T07:40:36.600Z,1019.98
2019-04-11T07:41:38.760Z,1019.98
2019-04-11T07:42:37.366Z,1019.94
2019-04-11T07:43:36.534Z,1020.00
2019-04-11T07:44:36.433Z,1020.01
2019-04-11T07:45:38.788Z,1019.96
2019-04-11T07:46:36.414Z,1019.99
2019-04-11T07:47:37.258Z,1020.03
2019-04-11T07:48:36.402Z,1019.98
2019-04-11T07:49:37.225Z,1019.93
2019-04-11T07:50:36.499Z,1020.02
2019-04-11T07:51:36.602Z,1020.10
2019-04-11T07:52:36.357Z,1020.05
2019-04-11T07:53:37.292Z,1020.07
2019-04-11T07:54:36.942Z,1019.97
2019-04-11T07:55:36.576Z,1020.07
2019-04-11T07:56:37.568Z,1020.03
2019-04-11T07:57:36.292Z,1020.14
2019-04-11T07:58:37.327Z,1020.04
2019-04-11T07:59:37.541Z,1020.00
2019-04-11T08:00:43.468Z,1020.02
2019-04-11T08:01:38.244Z,1020.02
2019-04-11T08:02:37.602Z,1020.08
2019-04-11T08:03:36.230Z,1020.05
2019-04-11T08:04:36.494Z,1019.93
2019-04-11T08:05:36.680Z,1020.02
2019-04-11T08:06:37.059Z,1019.99
2019-04-11T08:07:36.191Z,1020.03
2019-04-11T08:08:36.797Z,1019.97
2019-04-11T08:09:36.182Z,1020.09
2019-04-11T08:10:37.212Z,1020.07
2019-04-11T08:11:36.144Z,1020.03
2019-04-11T08:12:37.252Z,1020.03
2019-04-11T08:13:36.804Z,1019.99
2019-04-11T08:14:36.953Z,1019.97
2019-04-11T08:15:36.173Z,1019.93
2019-04-11T08:16:37.089Z,1020.05
2019-04-11T08:17:40.436Z,1019.99
2019-04-11T08:18:37.067Z,1020.00
2019-04-11T08:19:36.086Z,1020.09
2019-04-11T08:20:36.064Z,1020.11
2019-04-11T08:21:37.178Z,1020.10
2019-04-11T08:22:36.077Z,1020.10
2019-04-11T08:23:36.105Z,1020.08
2019-04-11T08:24:36.578Z,1020.06
2019-04-11T08:25:36.051Z,1020.06
2019-04-11T08:26:35.990Z,1020.11
2019-04-11T08:27:48.428Z,1020.03
2019-04-11T08:28:37.355Z,1020.01
2019-04-11T08:29:36.082Z,1020.06
2019-04-11T08:30:37.034Z,1020.11
2019-04-11T08:31:36.213Z,1020.14
2019-04-11T08:32:36.116Z,1020.20
2019-04-11T08:33:35.914Z,1020.17
2019-04-11T08:34:35.889Z,1020.07
2019-04-11T08:35:36.588Z,1019.98
2019-04-11T08:36:35.867Z,1020.03
2019-04-11T08:37:35.919Z,1019.99
2019-04-11T08:38:36.390Z,1020.08
2019-04-11T08:39:35.834Z,1020.16
2019-04-11T08:40:35.835Z,1020.19
2019-04-11T08:41:35.930Z,1020.10
2019-04-11T08:42:37.352Z,1020.05
2019-04-11T08:43:35.792Z,1020.08
2019-04-11T08:44:36.536Z,1020.10
2019-04-11T08:45:35.780Z,1019.98
2019-04-11T08:46:37.155Z,1020.07
2019-04-11T08:47:43.856Z,1020.18
2019-04-11T08:48:37.230Z,1020.12
2019-04-11T08:49:35.736Z,1020.17
2019-04-11T08:50:36.658Z,1020.11
2019-04-11T08:51:35.777Z,1020.15
2019-04-11T08:52:36.142Z,1020.25
2019-04-11T08:53:35.705Z,1020.24
2019-04-11T08:54:35.664Z,1020.29
2019-04-11T08:55:47.649Z,1020.22
2019-04-11T08:56:36.855Z,1020.15
2019-04-11T08:57:36.102Z,1020.20
2019-04-11T08:58:36.396Z,1020.21
2019-04-11T08:59:35.954Z,1020.18
2019-04-11T09:00:35.613Z,1020.16
2019-04-11T09:01:36.022Z,1020.15
2019-04-11T09:02:35.582Z,1020.14
2019-04-11T09:03:35.705Z,1020.16
2019-04-11T09:04:36.547Z,1020.14
2019-04-11T09:05:35.583Z,1020.13
2019-04-11T09:06:36.887Z,1020.17
2019-04-11T09:07:36.005Z,1020.15
2019-04-11T09:08:35.524Z,1020.16
2019-04-11T09:09:37.695Z,1020.13
2019-04-11T09:10:35.886Z,1020.11
2019-04-11T09:11:38.632Z,1020.17
2019-04-11T09:12:36.400Z,1020.16
2019-04-11T09:13:35.635Z,1020.14
2019-04-11T09:14:35.986Z,1020.15
2019-04-11T09:15:35.463Z,1020.26
2019-04-11T09:16:35.426Z,1020.15
2019-04-11T09:17:36.552Z,1020.21
2019-04-11T09:18:36.474Z,1020.04
2019-04-11T09:19:35.406Z,1020.02
2019-04-11T09:20:35.944Z,1020.05
2019-04-11T09:21:36.218Z,1019.99
2019-04-11T09:22:35.434Z,1020.01
2019-04-11T09:23:35.695Z,1020.08
2019-04-11T09:24:35.357Z,1020.03
2019-04-11T09:25:35.349Z,1019.99
2019-04-11T09:26:36.077Z,1020.03
2019-04-11T09:27:36.469Z,1020.04
2019-04-11T09:28:35.677Z,1020.11
2019-04-11T09:29:35.283Z,1020.05
2019-04-11T09:30:35.293Z,1019.92
2019-04-11T09:31:35.863Z,1019.95
2019-04-11T09:32:36.185Z,1019.95
2019-04-11T09:33:35.289Z,1019.94
2019-04-11T09:34:35.659Z,1019.86
2019-04-11T09:35:35.367Z,1019.95
2019-04-11T09:36:35.212Z,1019.90
2019-04-11T09:37:35.999Z,1020.04
2019-04-11T09:38:35.192Z,1020.01
2019-04-11T09:39:35.189Z,1020.08
2019-04-11T09:40:36.208Z,1020.00
2019-04-11T09:41:36.528Z,1020.06
2019-04-11T09:42:35.141Z,1020.01
2019-04-11T09:43:35.884Z,1020.05
2019-04-11T09:44:35.122Z,1020.08
2019-04-11T09:45:35.396Z,1020.02
2019-04-11T09:46:35.111Z,1020.13
2019-04-11T09:47:36.229Z,1020.11
2019-04-11T09:48:35.092Z,1020.13
2019-04-11T09:49:36.101Z,1020.12
2019-04-11T09:50:36.364Z,1020.09
2019-04-11T09:51:35.998Z,1020.13
2019-04-11T09:52:35.093Z,1020.08
2019-04-11T09:53:35.021Z,1020.07
2019-04-11T09:54:35.175Z,1020.11
2019-04-11T09:55:35.006Z,1020.09
2019-04-11T09:56:36.255Z,1020.06
2019-04-11T09:57:34.977Z,1020.03
2019-04-11T09:58:35.742Z,1020.07
2019-04-11T09:59:34.957Z,1020.07
2019-04-11T10:00:34.954Z,1020.08
2019-04-11T10:01:35.172Z,1020.11
2019-04-11T10:02:35.326Z,1020.10
2019-04-11T10:03:34.911Z,1020.05
2019-04-11T10:04:36.051Z,1020.12
2019-04-11T10:05:35.147Z,1020.09
2019-04-11T10:06:34.876Z,1020.09
2019-04-11T10:07:35.564Z,1020.07
2019-04-11T10:08:35.164Z,1020.08
2019-04-11T10:09:35.746Z,1020.05
2019-04-11T10:10:35.285Z,1020.10
2019-04-11T10:11:34.825Z,1020.07
2019-04-11T10:12:36.033Z,1020.05
2019-04-11T10:13:35.589Z,1020.07
2019-04-11T10:14:34.811Z,1020.08
2019-04-11T10:15:35.569Z,1020.07
2019-04-11T10:16:35.834Z,1020.01
2019-04-11T10:17:35.932Z,1020.05
2019-04-11T10:18:38.720Z,1020.02
2019-04-11T10:19:36.063Z,1020.03
2019-04-11T10:20:35.027Z,1020.09
2019-04-11T10:21:34.720Z,1020.08
2019-04-11T10:22:34.715Z,1020.07
2019-04-11T10:23:34.694Z,1020.07
2019-04-11T10:24:34.735Z,1020.00
2019-04-11T10:25:35.166Z,1020.13
2019-04-11T10:26:34.730Z,1020.15
2019-04-11T10:27:34.653Z,1020.13
2019-04-11T10:28:35.541Z,1020.13
2019-04-11T10:29:34.693Z,1020.08
2019-04-11T10:30:34.677Z,1020.15
2019-04-11T10:31:34.759Z,1020.16
2019-04-11T10:32:35.063Z,1020.19
2019-04-11T10:33:35.178Z,1020.20
2019-04-11T10:34:35.412Z,1020.21
2019-04-11T10:35:34.608Z,1020.15
2019-04-11T10:36:34.944Z,1020.15
2019-04-11T10:37:34.549Z,1020.13
2019-04-11T10:38:34.576Z,1020.10
2019-04-11T10:39:35.575Z,1020.12
2019-04-11T10:40:34.528Z,1020.16
2019-04-11T10:41:34.555Z,1020.14
2019-04-11T10:42:34.971Z,1020.16
2019-04-11T10:43:34.493Z,1020.21
2019-04-11T10:44:34.480Z,1020.31
2019-04-11T10:45:34.491Z,1020.20
2019-04-11T10:46:35.428Z,1020.21
2019-04-11T10:47:34.489Z,1020.23
2019-04-11T10:48:39.448Z,1020.28
2019-04-11T10:49:36.516Z,1020.20
2019-04-11T10:50:34.411Z,1020.22
2019-04-11T10:51:34.434Z,1020.22
2019-04-11T10:52:34.381Z,1020.19
2019-04-11T10:53:35.376Z,1020.20
2019-04-11T10:54:34.364Z,1020.16
2019-04-11T10:55:34.369Z,1020.14
2019-04-11T10:56:34.760Z,1020.17
2019-04-11T10:57:34.406Z,1020.20
2019-04-11T10:58:35.155Z,1020.31
2019-04-11T10:59:34.530Z,1020.19
2019-04-11T11:00:35.505Z,1020.16
2019-04-11T11:01:34.283Z,1020.22
2019-04-11T11:02:35.730Z,1020.28
2019-04-11T11:03:34.261Z,1020.21
2019-04-11T11:04:35.063Z,1020.21
2019-04-11T11:05:34.634Z,1020.22
2019-04-11T11:06:35.845Z,1020.20
2019-04-11T11:07:34.983Z,1020.24
2019-04-11T11:08:34.339Z,1020.22
2019-04-11T11:09:35.485Z,1020.24
2019-04-11T11:10:35.451Z,1020.14
2019-04-11T11:11:34.537Z,1020.18
2019-04-11T11:12:35.144Z,1020.15
2019-04-11T11:13:34.207Z,1020.18
2019-04-11T11:14:34.533Z,1020.24
2019-04-11T11:15:34.192Z,1020.20
2019-04-11T11:16:34.293Z,1020.25
2019-04-11T11:17:54.566Z,1020.19
2019-04-11T11:18:53.807Z,1020.17
2019-04-11T11:20:39.927Z,1020.24
2019-04-11T11:21:35.622Z,1020.19
2019-04-11T11:22:34.609Z,1020.19
2019-04-11T11:23:35.173Z,1020.25
2019-04-11T11:24:38.240Z,1020.15
2019-04-11T11:25:35.133Z,1020.14
2019-04-11T11:26:34.026Z,1020.22
2019-04-11T11:27:34.763Z,1020.19
2019-04-11T11:28:34.343Z,1020.23
2019-04-11T11:29:35.014Z,1020.23
2019-04-11T11:30:35.287Z,1020.33
2019-04-11T11:31:34.129Z,1020.28
2019-04-11T11:32:33.945Z,1020.28
2019-04-11T11:33:34.131Z,1020.32
2019-04-11T11:34:34.729Z,1020.33
2019-04-11T11:35:37.277Z,1020.36
2019-04-11T11:36:37.730Z,1020.30
2019-04-11T11:37:33.882Z,1020.34
2019-04-11T11:38:33.866Z,1020.33
2019-04-11T11:39:33.863Z,1020.41
2019-04-11T11:40:38.550Z,1020.35
2019-04-11T11:41:34.838Z,1020.38
2019-04-11T11:42:34.478Z,1020.36
2019-04-11T11:43:34.950Z,1020.37
2019-04-11T11:44:34.938Z,1020.39
2019-04-11T11:45:33.851Z,1020.38
2019-04-11T11:46:34.529Z,1020.33
2019-04-11T11:47:38.029Z,1020.41
2019-04-11T11:48:35.680Z,1020.39
2019-04-11T11:49:45.796Z,1020.45
2019-04-11T11:50:36.040Z,1020.44
2019-04-11T11:51:33.719Z,1020.40
2019-04-11T11:52:35.045Z,1020.43
2019-04-11T11:53:33.727Z,1020.46
2019-04-11T11:54:33.692Z,1020.43
2019-04-11T11:55:33.737Z,1020.45
2019-04-11T11:56:34.051Z,1020.45
2019-04-11T11:57:33.665Z,1020.50
2019-04-11T11:58:33.652Z,1020.51
2019-04-11T11:59:34.458Z,1020.50
2019-04-11T12:00:33.618Z,1020.47
2019-04-11T12:01:33.668Z,1020.43
2019-04-11T12:02:34.776Z,1020.50
2019-04-11T12:03:33.596Z,1020.49
2019-04-11T12:04:36.108Z,1020.46
2019-04-11T12:05:34.754Z,1020.49
2019-04-11T12:06:33.551Z,1020.53
2019-04-11T12:07:36.687Z,1020.54
2019-04-11T12:08:34.947Z,1020.58
2019-04-11T12:09:34.249Z,1020.55
2019-04-11T12:10:34.068Z,1020.44